Time;durP1;ratioP1;P1;durP2;ratioP2;P2;SDS_P1;SDS_P2;PMS_P1;PMS_P2;Temp;Humidity;BMP_temperature;BMP_pressure;BME280_temperature;BME280_humidity;BME280_pressure;Samples;Min_cycle;Max_cycle;Signal;HPM_P1;HPM_P2
2022/07/07 00:00:08;;;;;;;1.27;0.50;;;15.90;99.90;;;;;;4937125;29;20400;-75
2022/07/07 00:02:35;;;;;;;2.80;0.50;;;15.90;99.90;;;;;;4954309;29;20032;-75
2022/07/07 00:05:03;;;;;;;2.67;0.50;;;15.90;99.90;;;;;;4953987;29;20051;-75
2022/07/07 00:07:30;;;;;;;2.38;0.57;;;15.90;99.90;;;;;;4936851;29;20118;-75
2022/07/07 00:09:58;;;;;;;2.28;0.60;;;15.80;99.90;;;;;;4955477;28;20030;-75
2022/07/07 00:12:25;;;;;;;1.08;0.55;;;15.80;99.90;;;;;;4958019;29;20101;-75
2022/07/07 00:14:52;;;;;;;2.35;0.47;;;15.90;99.90;;;;;;4957978;29;20024;-75
2022/07/07 00:17:20;;;;;;;2.97;0.80;;;15.90;99.90;;;;;;4940641;29;20082;-75
2022/07/07 00:19:47;;;;;;;1.90;0.60;;;16.00;99.90;;;;;;4940587;29;20113;-75
2022/07/07 00:22:14;;;;;;;1.55;0.55;;;16.10;99.90;;;;;;4957839;29;20102;-74
2022/07/07 00:24:41;;;;;;;1.65;0.50;;;16.20;99.90;;;;;;4957757;29;20369;-74
2022/07/07 00:27:09;;;;;;;2.53;0.70;;;16.30;99.90;;;;;;4957525;29;20082;-75
2022/07/07 00:29:36;;;;;;;1.50;0.43;;;16.30;99.90;;;;;;4958274;29;20098;-75
2022/07/07 00:32:04;;;;;;;1.92;0.98;;;16.40;99.90;;;;;;4957637;29;20015;-76
2022/07/07 00:34:31;;;;;;;2.20;0.73;;;16.50;99.90;;;;;;4957671;29;20032;-76
2022/07/07 00:36:58;;;;;;;1.95;0.95;;;16.50;99.90;;;;;;4957486;29;20028;-76
2022/07/07 00:39:26;;;;;;;1.73;0.68;;;16.50;99.90;;;;;;4957473;29;20435;-76
2022/07/07 00:41:53;;;;;;;3.22;0.63;;;16.40;99.90;;;;;;4957881;29;20098;-76
2022/07/07 00:44:22;;;;;;;4.18;0.90;;;16.50;99.90;;;;;;4940079;29;20046;-76
2022/07/07 00:46:55;;;;;;;4.57;0.68;;;16.50;99.90;;;;;;4957270;29;20369;-76
2022/07/07 00:49:22;;;;;;;3.88;0.70;;;16.50;99.90;;;;;;4940114;29;20030;-76
2022/07/07 00:51:50;;;;;;;2.03;0.60;;;16.40;99.90;;;;;;4957492;29;20488;-75
2022/07/07 00:54:17;;;;;;;4.10;0.47;;;16.40;99.90;;;;;;4939978;29;20023;-76
2022/07/07 00:56:45;;;;;;;3.50;0.70;;;16.30;99.90;;;;;;4957190;29;20061;-76
2022/07/07 00:59:13;;;;;;;4.82;0.77;;;16.20;99.90;;;;;;4957374;29;20106;-76
2022/07/07 01:01:42;;;;;;;5.10;0.95;;;16.30;99.90;;;;;;4957184;29;20034;-76
2022/07/07 01:04:11;;;;;;;1.92;0.63;;;16.30;99.90;;;;;;4939824;29;20491;-76
2022/07/07 01:06:42;;;;;;;3.53;0.77;;;16.30;99.90;;;;;;4939472;29;20205;-75
2022/07/07 01:09:10;;;;;;;3.22;0.57;;;16.30;99.90;;;;;;4957093;29;20391;-76
2022/07/07 01:11:52;;;;;;;2.20;0.70;;;16.40;99.90;;;;;;4939211;29;20432;-76
2022/07/07 01:14:21;;;;;;;3.75;0.73;;;16.60;99.90;;;;;;4939563;29;20542;-76
2022/07/07 01:16:50;;;;;;;2.42;0.60;;;16.70;99.90;;;;;;4939554;29;20086;-76
2022/07/07 01:19:18;;;;;;;4.25;1.02;;;16.90;99.90;;;;;;4956886;29;20034;-75
2022/07/07 01:22:12;;;;;;;1.73;0.60;;;17.10;99.90;;;;;;4955881;28;20078;-76
2022/07/07 01:24:39;;;;;;;5.68;0.82;;;17.30;99.90;;;;;;4939317;29;20034;-76
2022/07/07 01:27:11;;;;;;;3.10;0.80;;;17.50;99.90;;;;;;4956732;29;20115;-76
2022/07/07 01:29:42;;;;;;;4.05;0.90;;;17.60;99.90;;;;;;4939278;29;20180;-76
2022/07/07 01:32:09;;;;;;;3.38;0.60;;;17.60;99.90;;;;;;4957060;29;20027;-76
2022/07/07 01:34:38;;;;;;;3.60;0.73;;;17.60;99.90;;;;;;4939492;29;20070;-76
2022/07/07 01:37:06;;;;;;;2.55;0.70;;;17.60;99.90;;;;;;4939241;29;20149;-76
2022/07/07 01:39:35;;;;;;;4.55;0.73;;;17.50;99.90;;;;;;4956477;29;20027;-76
2022/07/07 01:42:03;;;;;;;2.83;0.90;;;17.80;99.90;;;;;;4939176;29;20042;-76
2022/07/07 01:44:35;;;;;;;3.17;0.60;;;17.50;99.90;;;;;;4956227;29;20019;-76
2022/07/07 01:47:03;;;;;;;4.55;1.00;;;17.60;99.90;;;;;;4939051;29;20027;-76
2022/07/07 01:49:32;;;;;;;3.20;0.68;;;17.70;99.90;;;;;;4956370;29;20039;-76
2022/07/07 01:52:01;;;;;;;4.65;1.05;;;17.80;99.90;;;;;;4956230;29;20019;-75
2022/07/07 01:54:28;;;;;;;2.90;0.95;;;17.90;99.90;;;;;;4956116;29;20476;-76
2022/07/07 01:56:56;;;;;;;5.70;0.93;;;18.10;99.90;;;;;;4938789;29;20035;-76
2022/07/07 01:59:23;;;;;;;4.28;1.25;;;18.20;99.90;;;;;;4956498;29;20379;-76
2022/07/07 02:01:51;;;;;;;3.47;0.70;;;18.20;99.90;;;;;;4955948;29;20499;-75
2022/07/07 02:04:19;;;;;;;4.07;0.90;;;18.10;99.90;;;;;;4955954;29;20103;-76
2022/07/07 02:06:46;;;;;;;2.42;0.80;;;18.10;99.90;;;;;;4955787;29;20091;-76
2022/07/07 02:09:14;;;;;;;3.95;0.85;;;18.10;99.90;;;;;;4955898;29;20046;-76
2022/07/07 02:11:42;;;;;;;4.63;1.85;;;18.00;99.90;;;;;;4956038;29;20027;-76
2022/07/07 02:14:09;;;;;;;5.13;1.40;;;18.10;99.90;;;;;;4938562;29;20030;-76
2022/07/07 02:16:37;;;;;;;4.07;1.17;;;18.00;99.90;;;;;;4955845;29;20027;-76
2022/07/07 02:19:06;;;;;;;3.58;1.10;;;18.20;99.90;;;;;;4955803;29;20542;-77
2022/07/07 02:21:35;;;;;;;6.70;1.33;;;18.30;99.90;;;;;;4955689;29;20491;-76
2022/07/07 02:24:03;;;;;;;6.40;1.08;;;18.20;99.90;;;;;;4938511;29;20431;-76
2022/07/07 02:26:33;;;;;;;5.45;1.15;;;18.10;99.90;;;;;;4938167;29;20070;-76
2022/07/07 02:29:03;;;;;;;3.15;0.80;;;17.90;99.90;;;;;;4956149;29;20058;-76
2022/07/07 02:31:30;;;;;;;3.72;0.90;;;17.90;99.90;;;;;;4938244;29;20544;-76
2022/07/07 02:33:58;;;;;;;5.97;1.10;;;18.00;99.90;;;;;;4955386;28;20073;-76
2022/07/07 02:36:25;;;;;;;3.33;0.90;;;18.10;99.90;;;;;;4938279;29;20062;-76
2022/07/07 02:38:53;;;;;;;6.88;0.90;;;18.20;99.90;;;;;;4938326;29;20455;-76
2022/07/07 02:41:20;;;;;;;2.50;1.08;;;18.20;99.90;;;;;;4938037;29;20030;-76
2022/07/07 02:43:48;;;;;;;4.60;0.98;;;18.40;99.90;;;;;;4955460;29;20159;-77
2022/07/07 02:46:15;;;;;;;2.53;0.63;;;18.40;99.90;;;;;;4955226;29;20034;-77
2022/07/07 02:48:45;;;;;;;2.42;0.70;;;18.40;99.90;;;;;;4955359;29;20487;-77
2022/07/07 02:51:13;;;;;;;4.35;0.93;;;18.60;99.90;;;;;;4938048;29;20162;-77
2022/07/07 02:53:40;;;;;;;4.18;0.90;;;18.70;99.90;;;;;;4937876;29;20043;-77
2022/07/07 02:56:08;;;;;;;2.42;0.73;;;18.60;99.90;;;;;;4937994;29;20392;-77
2022/07/07 02:58:35;;;;;;;5.72;1.10;;;18.60;99.90;;;;;;4955101;29;20038;-77
2022/07/07 03:01:02;;;;;;;3.50;1.38;;;18.50;99.90;;;;;;4937819;29;20525;-76
2022/07/07 03:03:30;;;;;;;3.15;1.05;;;18.80;99.90;;;;;;4954959;29;20062;-75
2022/07/07 03:05:57;;;;;;;2.92;1.00;;;18.90;99.90;;;;;;4954355;29;20054;-75
2022/07/07 03:08:25;;;;;;;1.77;0.75;;;18.90;99.90;;;;;;4955131;29;20123;-76
2022/07/07 03:10:52;;;;;;;3.10;1.00;;;18.80;99.90;;;;;;4954944;29;20388;-76
2022/07/07 03:13:20;;;;;;;3.22;1.00;;;18.80;99.90;;;;;;4954918;29;20026;-75
2022/07/07 03:15:47;;;;;;;3.92;1.10;;;18.50;99.90;;;;;;4937555;29;20027;-75
2022/07/07 03:18:14;;;;;;;3.17;0.98;;;18.20;99.90;;;;;;4937505;29;20065;-75
2022/07/07 03:20:41;;;;;;;3.90;0.93;;;18.30;99.90;;;;;;4954867;29;20027;-75
2022/07/07 03:23:09;;;;;;;3.67;0.73;;;18.60;99.90;;;;;;4937648;29;20452;-76
2022/07/07 03:25:37;;;;;;;4.30;0.60;;;18.60;99.90;;;;;;4937495;29;20035;-76
2022/07/07 03:28:04;;;;;;;5.35;0.80;;;18.50;99.90;;;;;;4954760;29;20019;-76
2022/07/07 03:30:32;;;;;;;4.07;0.60;;;18.60;99.90;;;;;;4954763;29;20020;-76
2022/07/07 03:32:59;;;;;;;2.03;0.50;;;18.80;99.90;;;;;;4954929;29;20023;-76
2022/07/07 03:35:26;;;;;;;1.95;0.55;;;18.80;99.90;;;;;;4954713;29;20023;-75
2022/07/07 03:37:54;;;;;;;2.17;0.50;;;18.60;99.90;;;;;;4954579;29;20027;-76
2022/07/07 03:40:21;;;;;;;4.28;0.80;;;18.50;99.90;;;;;;4937363;29;20027;-75
2022/07/07 03:42:48;;;;;;;2.95;0.95;;;18.40;99.90;;;;;;4937075;29;20023;-75
2022/07/07 03:45:16;;;;;;;3.15;0.63;;;18.60;99.90;;;;;;4938869;29;20031;-75
2022/07/07 03:47:43;;;;;;;2.35;0.70;;;18.50;99.90;;;;;;4958577;29;20027;-75
2022/07/07 03:50:10;;;;;;;4.60;0.93;;;18.20;99.90;;;;;;4958572;29;20061;-76
2022/07/07 03:52:38;;;;;;;3.38;0.60;;;18.30;99.90;;;;;;4941016;29;20019;-77
2022/07/07 03:55:06;;;;;;;3.17;0.70;;;18.40;99.90;;;;;;4958497;29;20027;-76
2022/07/07 03:57:33;;;;;;;3.22;0.60;;;18.30;99.90;;;;;;4958654;29;20027;-75
2022/07/07 04:00:01;;;;;;;2.78;1.02;;;18.40;99.90;;;;;;4941072;29;20028;-76
2022/07/07 04:02:28;;;;;;;4.30;0.95;;;18.30;99.90;;;;;;4958243;29;20500;-75
2022/07/07 04:04:55;;;;;;;3.58;0.90;;;18.20;99.90;;;;;;4957962;29;20051;-74
2022/07/07 04:07:23;;;;;;;3.95;0.90;;;18.10;99.90;;;;;;4958115;29;20043;-75
2022/07/07 04:09:50;;;;;;;5.10;1.00;;;18.10;99.90;;;;;;4958135;29;20401;-75
2022/07/07 04:12:17;;;;;;;6.00;1.10;;;18.00;99.90;;;;;;4958008;29;20024;-75
2022/07/07 04:14:45;;;;;;;4.72;1.00;;;18.00;99.90;;;;;;4957920;29;20147;-75
2022/07/07 04:17:12;;;;;;;3.95;0.60;;;17.90;99.90;;;;;;4958060;29;20384;-76
2022/07/07 04:19:40;;;;;;;3.10;0.98;;;17.80;99.90;;;;;;4958011;29;20023;-75
2022/07/07 04:22:07;;;;;;;6.82;0.80;;;17.90;99.90;;;;;;4940527;29;20027;-76
2022/07/07 04:24:35;;;;;;;6.63;1.25;;;18.00;99.90;;;;;;4940615;29;20032;-76
2022/07/07 04:27:03;;;;;;;5.45;1.50;;;18.10;99.90;;;;;;4940500;29;20027;-76
2022/07/07 04:29:31;;;;;;;4.93;1.15;;;18.00;99.90;;;;;;4957764;29;20103;-76
2022/07/07 04:31:58;;;;;;;6.85;1.45;;;17.80;99.90;;;;;;4957771;29;20027;-75
2022/07/07 04:34:25;;;;;;;4.68;1.25;;;17.70;99.90;;;;;;4940484;29;20034;-76
2022/07/07 04:36:53;;;;;;;4.28;1.33;;;17.60;99.90;;;;;;4957583;29;20020;-76
2022/07/07 04:39:20;;;;;;;5.50;1.58;;;17.70;99.90;;;;;;4957841;29;20043;-76
2022/07/07 04:41:47;;;;;;;4.90;1.65;;;17.50;99.90;;;;;;4957755;29;20373;-75
2022/07/07 04:44:15;;;;;;;4.57;1.02;;;17.50;99.90;;;;;;4957846;29;20167;-75
2022/07/07 04:46:42;;;;;;;6.70;1.73;;;17.30;99.90;;;;;;4957331;29;20162;-75
2022/07/07 04:49:09;;;;;;;11.10;2.15;;;17.10;99.90;;;;;;4940151;29;20026;-75
2022/07/07 04:51:37;;;;;;;8.55;1.60;;;17.00;99.90;;;;;;4957589;29;20020;-75
2022/07/07 04:54:05;;;;;;;10.90;1.77;;;17.00;99.90;;;;;;4957347;29;20031;-73
2022/07/07 04:56:32;;;;;;;8.27;2.67;;;17.00;99.90;;;;;;4957234;28;20034;-73
2022/07/07 04:58:59;;;;;;;8.02;1.58;;;17.10;99.90;;;;;;4957258;29;20023;-73
2022/07/07 05:01:27;;;;;;;8.75;1.50;;;17.00;99.90;;;;;;4957193;29;20506;-73
2022/07/07 05:03:54;;;;;;;7.55;1.45;;;16.80;99.90;;;;;;4957133;29;20023;-73
2022/07/07 05:06:21;;;;;;;8.30;1.48;;;16.60;99.90;;;;;;4956827;29;20039;-73
2022/07/07 05:08:49;;;;;;;7.63;1.48;;;16.50;99.90;;;;;;4957089;29;20079;-73
2022/07/07 05:11:16;;;;;;;7.78;1.35;;;16.50;99.90;;;;;;4957048;29;20094;-73
2022/07/07 05:13:43;;;;;;;6.18;1.63;;;16.40;99.90;;;;;;4939618;29;20483;-73
2022/07/07 05:16:11;;;;;;;6.85;1.52;;;16.30;99.90;;;;;;4939577;29;20031;-73
2022/07/07 05:18:38;;;;;;;7.18;1.50;;;16.20;99.90;;;;;;4956808;29;20086;-72
2022/07/07 05:21:06;;;;;;;9.52;1.60;;;16.20;99.90;;;;;;4956793;29;20027;-72
2022/07/07 05:23:33;;;;;;;5.15;1.50;;;16.10;99.90;;;;;;4956803;29;20024;-74
2022/07/07 05:26:00;;;;;;;4.82;1.20;;;16.10;99.90;;;;;;4956660;29;20030;-74
2022/07/07 05:28:30;;;;;;;5.85;1.40;;;16.10;99.90;;;;;;4939480;29;20039;-73
2022/07/07 05:30:57;;;;;;;6.38;1.52;;;16.00;99.90;;;;;;4956690;29;20027;-73
2022/07/07 05:33:24;;;;;;;5.95;1.13;;;16.00;99.90;;;;;;4956631;29;20026;-73
2022/07/07 05:35:52;;;;;;;5.88;1.42;;;16.00;99.90;;;;;;4956710;29;20408;-74
2022/07/07 05:38:19;;;;;;;11.13;1.48;;;15.90;99.90;;;;;;4956550;29;20062;-74
2022/07/07 05:40:47;;;;;;;6.57;1.45;;;15.90;99.90;;;;;;4956642;29;20027;-74
2022/07/07 05:43:14;;;;;;;4.72;1.33;;;16.00;99.90;;;;;;4939015;29;20051;-74
2022/07/07 05:45:41;;;;;;;6.82;1.33;;;16.00;99.90;;;;;;4956215;29;20030;-74
2022/07/07 05:48:09;;;;;;;5.82;1.30;;;16.10;99.90;;;;;;4956289;29;20015;-75
2022/07/07 05:50:36;;;;;;;7.90;1.55;;;16.00;99.90;;;;;;4938382;29;20170;-75
2022/07/07 05:53:03;;;;;;;6.55;1.30;;;15.90;99.90;;;;;;4939045;29;20034;-75
2022/07/07 05:55:31;;;;;;;5.35;1.30;;;15.90;99.90;;;;;;4956212;29;20035;-75
2022/07/07 05:57:59;;;;;;;8.73;1.88;;;15.80;99.90;;;;;;4938812;29;20031;-75
2022/07/07 06:00:28;;;;;;;6.00;1.65;;;15.90;99.90;;;;;;4938732;29;20031;-74
2022/07/07 06:02:55;;;;;;;5.82;1.45;;;15.80;99.90;;;;;;4956020;29;20110;-76
2022/07/07 06:05:23;;;;;;;6.28;1.27;;;15.70;99.90;;;;;;4955788;29;20050;-75
2022/07/07 06:07:50;;;;;;;6.95;1.77;;;15.60;99.90;;;;;;4956028;28;20060;-76
2022/07/07 06:10:18;;;;;;;7.28;1.50;;;15.60;99.90;;;;;;4955810;29;20050;-75
2022/07/07 06:12:45;;;;;;;5.07;1.38;;;15.50;99.90;;;;;;4938554;29;20027;-75
2022/07/07 06:15:13;;;;;;;6.00;1.50;;;15.50;99.90;;;;;;4955790;29;20069;-76
2022/07/07 06:17:40;;;;;;;4.40;1.60;;;15.50;99.90;;;;;;4955718;29;20027;-75
2022/07/07 06:20:09;;;;;;;5.85;1.40;;;15.50;99.90;;;;;;4955687;29;20484;-75
2022/07/07 06:22:36;;;;;;;5.10;1.40;;;15.40;99.90;;;;;;4955602;29;20029;-75
2022/07/07 06:25:03;;;;;;;6.00;1.25;;;15.30;99.90;;;;;;4955601;29;20499;-73
2022/07/07 06:27:31;;;;;;;6.30;1.30;;;15.30;99.90;;;;;;4955343;29;20102;-74
2022/07/07 06:29:58;;;;;;;10.50;1.70;;;15.20;99.90;;;;;;4955392;29;20408;-73
2022/07/07 06:32:25;;;;;;;8.98;2.08;;;15.10;99.90;;;;;;4938243;29;20038;-74
2022/07/07 06:34:53;;;;;;;9.02;2.00;;;15.10;99.90;;;;;;4938183;29;20023;-75
2022/07/07 06:37:20;;;;;;;9.40;1.65;;;15.00;99.90;;;;;;4955295;29;20106;-75
2022/07/07 06:39:48;;;;;;;9.25;1.60;;;15.00;99.90;;;;;;4938079;29;20075;-75
2022/07/07 06:42:15;;;;;;;7.75;2.15;;;15.00;99.90;;;;;;4955284;29;20392;-75
2022/07/07 06:44:42;;;;;;;4.80;1.25;;;14.90;99.90;;;;;;4955361;29;20020;-74
2022/07/07 06:47:10;;;;;;;7.82;1.90;;;14.90;99.90;;;;;;4955355;29;20023;-75
2022/07/07 06:49:37;;;;;;;11.88;2.13;;;14.80;99.90;;;;;;4955147;29;20027;-75
2022/07/07 06:52:05;;;;;;;9.23;3.65;;;14.70;99.90;;;;;;4955057;29;20120;-74
2022/07/07 06:54:32;;;;;;;9.57;1.77;;;14.70;99.90;;;;;;4955162;29;20039;-75
2022/07/07 06:56:59;;;;;;;9.00;2.05;;;14.70;99.90;;;;;;4937755;29;20115;-75
2022/07/07 06:59:27;;;;;;;6.88;2.10;;;14.60;99.90;;;;;;4955125;29;20027;-75
2022/07/07 07:01:54;;;;;;;6.57;2.05;;;14.60;99.90;;;;;;4955248;29;20028;-75
2022/07/07 07:04:21;;;;;;;7.72;1.73;;;14.50;99.90;;;;;;4955003;29;20030;-74
2022/07/07 07:06:49;;;;;;;8.55;2.20;;;14.40;99.90;;;;;;4954899;29;20091;-75
2022/07/07 07:09:16;;;;;;;6.18;1.70;;;14.30;99.90;;;;;;4954868;29;20031;-75
2022/07/07 07:11:44;;;;;;;11.23;2.60;;;14.30;99.90;;;;;;4954722;29;20534;-75
2022/07/07 07:14:11;;;;;;;8.35;2.28;;;14.20;99.90;;;;;;4937456;29;20391;-75
2022/07/07 07:16:38;;;;;;;6.13;1.70;;;14.20;99.90;;;;;;4954768;29;20035;-75
2022/07/07 07:19:06;;;;;;;12.43;2.67;;;14.20;99.90;;;;;;4954511;28;20024;-75
2022/07/07 07:21:34;;;;;;;7.35;2.42;;;14.20;99.90;;;;;;4954630;29;20488;-75
2022/07/07 07:24:01;;;;;;;9.88;2.03;;;14.20;99.90;;;;;;4937395;29;20431;-75
2022/07/07 07:26:28;;;;;;;7.15;2.42;;;14.10;99.90;;;;;;4954638;29;20023;-75
2022/07/07 07:28:56;;;;;;;16.02;2.67;;;14.00;99.90;;;;;;4937413;29;20035;-75
2022/07/07 07:31:23;;;;;;;10.93;2.40;;;14.00;99.90;;;;;;4954731;29;20024;-75
2022/07/07 07:33:50;;;;;;;10.18;2.53;;;13.90;99.90;;;;;;4937317;29;20459;-75
2022/07/07 07:36:18;;;;;;;9.82;2.83;;;13.90;99.90;;;;;;4954625;29;20023;-76
2022/07/07 07:38:45;;;;;;;12.00;2.38;;;13.90;99.90;;;;;;4954595;29;20035;-75
2022/07/07 07:41:13;;;;;;;9.70;3.13;;;13.90;99.90;;;;;;4955145;29;20106;-76
2022/07/07 07:43:41;;;;;;;11.20;3.13;;;13.80;99.90;;;;;;4954650;29;20035;-76
2022/07/07 07:46:08;;;;;;;11.57;2.83;;;13.80;99.90;;;;;;4953461;29;20118;-75
2022/07/07 07:48:36;;;;;;;8.00;2.90;;;13.80;99.90;;;;;;4954521;29;20024;-75
2022/07/07 07:51:03;;;;;;;10.93;3.20;;;13.70;99.90;;;;;;4954607;29;20020;-76
2022/07/07 07:53:31;;;;;;;11.65;3.08;;;13.70;99.90;;;;;;4954520;29;20480;-75
2022/07/07 07:55:58;;;;;;;10.60;2.80;;;13.70;99.90;;;;;;4954564;29;20039;-76
2022/07/07 07:58:26;;;;;;;15.00;4.38;;;13.60;99.90;;;;;;4954519;29;20086;-76
2022/07/07 08:00:53;;;;;;;12.27;3.17;;;13.60;99.90;;;;;;4937480;29;20023;-75
2022/07/07 08:03:21;;;;;;;12.55;3.55;;;13.60;99.90;;;;;;4954867;29;20027;-75
2022/07/07 08:05:48;;;;;;;10.55;3.47;;;13.50;99.90;;;;;;4954191;29;20043;-75
2022/07/07 08:08:15;;;;;;;8.75;2.90;;;13.40;99.90;;;;;;4954987;29;20023;-74
2022/07/07 08:10:43;;;;;;;10.00;3.08;;;13.50;99.90;;;;;;4936962;29;20078;-75
2022/07/07 08:13:10;;;;;;;7.35;2.35;;;13.50;99.90;;;;;;4937093;29;20456;-77
2022/07/07 08:15:37;;;;;;;7.22;2.38;;;13.50;99.90;;;;;;4954256;29;20028;-77
2022/07/07 08:18:05;;;;;;;9.73;2.97;;;13.50;99.90;;;;;;4954639;29;20035;-77
2022/07/07 08:20:32;;;;;;;9.23;2.30;;;13.50;99.90;;;;;;4954257;29;20073;-77
2022/07/07 08:22:59;;;;;;;7.95;2.75;;;13.50;99.90;;;;;;4954241;29;20050;-76
2022/07/07 08:25:27;;;;;;;9.98;3.05;;;13.50;99.90;;;;;;4936943;29;20058;-77
2022/07/07 08:27:54;;;;;;;10.15;3.60;;;13.50;99.90;;;;;;4936998;29;20028;-77
2022/07/07 08:30:22;;;;;;;12.75;4.10;;;13.50;99.90;;;;;;4937225;29;20388;-77
2022/07/07 08:32:49;;;;;;;11.70;3.58;;;13.50;99.90;;;;;;4957912;29;20023;-77
2022/07/07 08:35:16;;;;;;;10.57;3.30;;;13.40;99.90;;;;;;4957826;29;20023;-76
2022/07/07 08:37:44;;;;;;;11.57;3.50;;;13.40;99.90;;;;;;4957628;29;20030;-75
2022/07/07 08:40:12;;;;;;;10.05;3.03;;;13.30;99.90;;;;;;4958080;29;20168;-75
2022/07/07 08:42:40;;;;;;;9.55;3.08;;;13.30;99.90;;;;;;4940462;29;20396;-75
2022/07/07 08:45:07;;;;;;;7.57;2.70;;;13.30;99.90;;;;;;4957579;29;20067;-75
2022/07/07 08:47:35;;;;;;;9.20;3.05;;;13.20;99.90;;;;;;4940171;29;20031;-75
2022/07/07 08:50:03;;;;;;;9.27;2.90;;;13.20;99.90;;;;;;4957484;29;20023;-75
2022/07/07 08:52:30;;;;;;;12.25;4.13;;;13.20;99.90;;;;;;4957329;29;20025;-75
2022/07/07 08:55:00;;;;;;;13.07;4.68;;;13.20;99.90;;;;;;4957483;29;20034;-76
2022/07/07 08:57:28;;;;;;;9.13;2.57;;;13.20;99.90;;;;;;4940127;29;20043;-76
2022/07/07 08:59:56;;;;;;;13.48;3.72;;;13.10;99.90;;;;;;4940080;29;20305;-75
2022/07/07 09:02:24;;;;;;;9.10;3.28;;;13.10;99.90;;;;;;4957290;29;20023;-76
2022/07/07 09:04:52;;;;;;;9.10;2.80;;;13.10;99.90;;;;;;4956935;29;20049;-76
2022/07/07 09:07:20;;;;;;;9.40;2.80;;;13.10;99.90;;;;;;4957284;29;20071;-76
2022/07/07 09:09:52;;;;;;;8.48;2.78;;;13.10;99.90;;;;;;4957184;29;20024;-76
2022/07/07 09:12:20;;;;;;;8.55;2.90;;;13.00;99.90;;;;;;4957117;29;20069;-76
2022/07/07 09:14:55;;;;;;;7.97;2.70;;;12.90;99.90;;;;;;4939739;29;20044;-76
2022/07/07 09:17:32;;;;;;;12.70;3.00;;;12.90;99.90;;;;;;4957312;29;20023;-76
2022/07/07 09:20:05;;;;;;;14.00;3.45;;;12.90;99.90;;;;;;4957130;29;20169;-76
2022/07/07 09:22:52;;;;;;;14.20;4.15;;;12.80;99.90;;;;;;4956989;29;20433;-76
2022/07/07 09:25:23;;;;;;;10.73;3.70;;;12.80;99.90;;;;;;4957009;29;20035;-76
2022/07/07 09:27:53;;;;;;;17.13;4.00;;;12.70;99.90;;;;;;4957063;29;20053;-76
2022/07/07 09:30:27;;;;;;;10.95;3.63;;;12.60;99.90;;;;;;4956943;29;20480;-76
2022/07/07 09:32:55;;;;;;;14.68;4.70;;;12.50;99.90;;;;;;4956955;29;20217;-76
2022/07/07 09:38:22;;;;;;;7.15;3.05;;;12.50;99.90;;;;;;4957485;29;20041;-76
2022/07/07 09:40:53;;;;;;;13.90;4.18;;;12.30;99.90;;;;;;4956836;29;20033;-75
2022/07/07 09:43:22;;;;;;;11.55;3.92;;;12.30;99.90;;;;;;4938619;29;20046;-76
2022/07/07 09:46:29;;;;;;;9.15;2.92;;;12.20;99.90;;;;;;4956519;29;20028;-75
2022/07/07 09:48:59;;;;;;;8.52;3.10;;;12.30;99.90;;;;;;4937608;29;20122;-74
2022/07/07 09:51:33;;;;;;;10.87;3.57;;;12.20;99.90;;;;;;4938994;29;20144;-75
2022/07/07 09:54:10;;;;;;;9.00;4.05;;;12.20;99.90;;;;;;4939021;29;20030;-77
2022/07/07 09:56:47;;;;;;;17.00;5.18;;;12.20;99.90;;;;;;4939504;29;20034;-75
2022/07/07 09:59:21;;;;;;;14.05;5.03;;;12.20;99.90;;;;;;4956209;29;20023;-75
2022/07/07 10:01:50;;;;;;;11.13;4.05;;;12.10;99.90;;;;;;4956232;29;20047;-77
2022/07/07 10:04:22;;;;;;;10.00;3.50;;;12.10;99.90;;;;;;4955963;29;20459;-77
2022/07/07 10:06:51;;;;;;;9.75;3.92;;;12.10;99.90;;;;;;4956035;29;20031;-75
2022/07/07 10:09:20;;;;;;;7.28;3.45;;;12.00;99.90;;;;;;4938804;29;20027;-75
2022/07/07 10:11:51;;;;;;;13.48;4.32;;;12.00;99.90;;;;;;4938513;29;20023;-75
2022/07/07 10:14:34;;;;;;;16.60;4.10;;;11.90;99.90;;;;;;4938536;29;20110;-75
2022/07/07 10:17:03;;;;;;;8.70;3.83;;;11.90;99.90;;;;;;4955785;29;20399;-75
2022/07/07 10:19:30;;;;;;;9.38;4.40;;;11.80;99.90;;;;;;4956070;29;20034;-75
2022/07/07 10:21:59;;;;;;;10.23;5.22;;;11.80;99.90;;;;;;4956059;29;20541;-76
2022/07/07 10:24:35;;;;;;;11.48;5.10;;;11.80;99.90;;;;;;4956149;29;20030;-76
2022/07/07 10:27:04;;;;;;;10.80;4.78;;;11.70;99.90;;;;;;4938458;29;20439;-76
2022/07/07 10:29:50;;;;;;;10.70;5.05;;;11.70;99.90;;;;;;4955850;29;20015;-76
2022/07/07 10:32:32;;;;;;;10.10;5.38;;;11.60;99.90;;;;;;4938460;29;20019;-75
2022/07/07 10:35:06;;;;;;;7.78;5.47;;;11.60;99.90;;;;;;4955654;29;20019;-76
2022/07/07 10:37:48;;;;;;;8.02;3.97;;;11.50;99.90;;;;;;4956018;29;20077;-75
2022/07/07 10:40:24;;;;;;;10.07;4.63;;;11.50;99.90;;;;;;4938420;29;20027;-76
2022/07/07 10:43:12;;;;;;;9.02;3.30;;;11.50;99.90;;;;;;4955597;29;20387;-76
2022/07/07 10:45:47;;;;;;;6.32;3.13;;;11.50;99.90;;;;;;4938118;29;20495;-76
2022/07/07 10:48:46;;;;;;;6.57;3.28;;;11.50;99.90;;;;;;4955751;29;20107;-75
2022/07/07 10:51:27;;;;;;;6.65;3.67;;;11.60;99.90;;;;;;4955466;29;20023;-75
2022/07/07 10:54:01;;;;;;;9.20;3.20;;;11.60;99.90;;;;;;4955526;28;20101;-76
2022/07/07 10:56:48;;;;;;;5.15;2.88;;;11.60;99.90;;;;;;4938143;29;20412;-76
2022/07/07 10:59:15;;;;;;;4.90;2.78;;;11.60;99.90;;;;;;4955094;29;20491;-75
2022/07/07 11:02:02;;;;;;;5.32;2.42;;;11.60;99.90;;;;;;4955747;29;20479;-75
2022/07/07 11:04:48;;;;;;;3.53;2.00;;;11.70;99.90;;;;;;4954803;29;20369;-75
2022/07/07 11:07:21;;;;;;;5.60;2.13;;;11.70;99.90;;;;;;4955376;29;20066;-74
2022/07/07 11:10:11;;;;;;;5.05;1.98;;;11.70;99.90;;;;;;4955177;29;20030;-75
2022/07/07 11:12:47;;;;;;;6.38;2.78;;;11.70;99.90;;;;;;4955232;29;20102;-74
2022/07/07 11:15:27;;;;;;;4.15;1.58;;;11.60;99.90;;;;;;4955084;29;20042;-75
2022/07/07 11:17:57;;;;;;;4.70;2.23;;;11.50;99.90;;;;;;4955426;29;20019;-75
2022/07/07 11:20:32;;;;;;;4.07;2.17;;;11.50;99.90;;;;;;4955537;29;20023;-75
2022/07/07 11:23:13;;;;;;;6.55;3.08;;;11.50;99.90;;;;;;4937739;29;20396;-75
2022/07/07 11:25:41;;;;;;;6.55;3.20;;;11.40;99.90;;;;;;4937515;29;20046;-75
2022/07/07 11:28:12;;;;;;;6.75;3.10;;;11.30;99.90;;;;;;4954839;29;20026;-75
2022/07/07 11:30:40;;;;;;;5.03;2.83;;;11.20;99.90;;;;;;4954964;29;20027;-74
2022/07/07 11:33:09;;;;;;;5.05;2.53;;;11.20;99.90;;;;;;4937551;29;20031;-76
2022/07/07 11:35:43;;;;;;;7.82;2.45;;;11.10;99.90;;;;;;4954827;29;20047;-76
2022/07/07 11:38:12;;;;;;;3.60;2.10;;;11.10;99.90;;;;;;4938573;29;20027;-75
2022/07/07 11:40:42;;;;;;;3.60;2.00;;;11.00;99.90;;;;;;4937661;29;20032;-76
2022/07/07 11:43:24;;;;;;;4.68;2.42;;;11.00;99.90;;;;;;4954679;29;20082;-76
2022/07/07 11:45:52;;;;;;;4.47;1.75;;;11.00;99.90;;;;;;4954606;29;20369;-76
2022/07/07 11:48:19;;;;;;;3.58;1.70;;;11.00;99.90;;;;;;4937520;29;20027;-77
2022/07/07 11:50:48;;;;;;;2.30;1.30;;;10.90;99.90;;;;;;4954860;29;20431;-75
2022/07/07 11:53:15;;;;;;;2.53;1.50;;;10.90;99.90;;;;;;4954727;29;20030;-74
2022/07/07 11:55:45;;;;;;;2.53;1.33;;;11.00;99.90;;;;;;4954628;29;20023;-75
2022/07/07 11:58:12;;;;;;;4.50;1.77;;;10.90;99.90;;;;;;4937370;29;20023;-75
2022/07/07 12:00:41;;;;;;;4.25;1.35;;;11.00;99.90;;;;;;4954694;29;20272;-75
2022/07/07 12:03:09;;;;;;;1.98;1.30;;;11.00;99.90;;;;;;4937222;29;20547;-74
2022/07/07 12:05:43;;;;;;;2.45;1.17;;;11.00;99.90;;;;;;4954877;28;20039;-74
2022/07/07 12:08:12;;;;;;;3.22;1.10;;;11.00;99.90;;;;;;4941148;29;20027;-74
2022/07/07 12:10:52;;;;;;;3.22;1.10;;;11.00;99.90;;;;;;4941131;29;20030;-74
2022/07/07 12:13:20;;;;;;;3.15;1.15;;;10.90;99.90;;;;;;4958361;29;20102;-75
2022/07/07 12:15:51;;;;;;;2.22;1.40;;;11.00;99.90;;;;;;4958314;29;20035;-75
2022/07/07 12:18:42;;;;;;;3.72;1.33;;;10.90;99.90;;;;;;4940083;29;20027;-75
2022/07/07 12:21:15;;;;;;;2.00;1.30;;;10.90;99.90;;;;;;4949129;29;20073;-74
2022/07/07 12:23:46;;;;;;;1.92;1.20;;;10.80;99.90;;;;;;4958401;29;20483;-76
2022/07/07 12:26:17;;;;;;;;;;;10.80;99.90;;;;;;4958535;29;20023;-76
2022/07/07 12:28:45;;;;;;;1.92;1.23;;;10.80;99.90;;;;;;4958231;29;19907;-75
2022/07/07 12:31:20;;;;;;;2.80;1.10;;;10.80;99.90;;;;;;4957990;29;20034;-74
2022/07/07 12:33:49;;;;;;;2.08;1.23;;;10.70;99.90;;;;;;4940779;29;20054;-74
2022/07/07 12:36:21;;;;;;;3.08;1.25;;;10.60;99.90;;;;;;4958179;29;20066;-75
2022/07/07 12:38:50;;;;;;;2.85;1.40;;;10.50;99.90;;;;;;4957933;29;20078;-76
2022/07/07 12:41:24;;;;;;;2.05;1.00;;;10.40;99.90;;;;;;4958166;29;20055;-75
2022/07/07 12:43:55;;;;;;;1.45;0.85;;;10.40;99.90;;;;;;4957847;29;20031;-75
2022/07/07 12:46:31;;;;;;;;;;;10.30;99.90;;;;;;4958221;29;20030;-75
2022/07/07 12:49:00;;;;;;;2.20;1.17;;;10.30;99.90;;;;;;4957744;29;19914;-75
2022/07/07 12:51:28;;;;;;;2.45;1.02;;;10.30;99.90;;;;;;4958084;29;20027;-75
2022/07/07 12:53:56;;;;;;;2.22;1.40;;;10.30;99.90;;;;;;4957607;29;20395;-75
2022/07/07 12:56:33;;;;;;;4.68;1.30;;;10.20;99.90;;;;;;4940381;29;20066;-75
2022/07/07 12:59:14;;;;;;;2.35;1.10;;;10.20;99.90;;;;;;4957744;29;20023;-75